Time;durP1;ratioP1;P1;durP2;ratioP2;P2;SDS_P1;SDS_P2;PMS_P1;PMS_P2;Temp;Humidity;BMP_temperature;BMP_pressure;BME280_temperature;BME280_humidity;BME280_pressure;Samples;Min_cycle;Max_cycle;Signal;HPM_P1;HPM_P2
2021/04/03 00:02:13;;;;;;;7.68;6.30;;;7.80;46.80;;;;;;4952443;28;20102;-80
2021/04/03 00:04:39;;;;;;;9.63;6.78;;;7.70;46.60;;;;;;4970063;28;20087;-81
2021/04/03 00:07:05;;;;;;;6.57;5.93;;;7.80;46.90;;;;;;4937969;28;20031;-81
2021/04/03 00:09:31;;;;;;;7.28;6.53;;;7.70;46.80;;;;;;4952304;28;20471;-79
2021/04/03 00:11:57;;;;;;;8.75;6.70;;;7.70;46.80;;;;;;4969917;28;20061;-80
2021/04/03 00:14:23;;;;;;;8.02;6.47;;;7.70;46.90;;;;;;4969549;28;20121;-80
2021/04/03 00:16:49;;;;;;;7.38;6.10;;;7.70;46.90;;;;;;4952311;28;20130;-80
2021/04/03 00:19:15;;;;;;;6.82;6.22;;;7.60;46.80;;;;;;4969314;28;20133;-79
2021/04/03 00:21:41;;;;;;;7.80;5.60;;;7.60;46.90;;;;;;4969340;28;20153;-78
2021/04/03 00:24:08;;;;;;;8.73;7.57;;;7.60;47.00;;;;;;4968984;28;20291;-80
2021/04/03 00:26:34;;;;;;;7.63;6.43;;;7.50;46.80;;;;;;4952359;28;20051;-81
2021/04/03 00:29:00;;;;;;;8.23;6.53;;;7.50;46.90;;;;;;4950726;28;20045;-80
2021/04/03 00:31:25;;;;;;;6.60;5.90;;;7.50;47.00;;;;;;4951092;28;20047;-81
2021/04/03 00:33:52;;;;;;;8.60;5.55;;;7.50;47.00;;;;;;4951443;28;20031;-80
2021/04/03 00:36:18;;;;;;;7.30;6.63;;;7.40;46.90;;;;;;4951411;28;20047;-80
2021/04/03 00:38:44;;;;;;;6.47;5.53;;;7.40;47.00;;;;;;4955831;28;20031;-80
2021/04/03 00:41:10;;;;;;;8.88;6.93;;;7.40;47.00;;;;;;4987921;28;20038;-79
2021/04/03 00:43:36;;;;;;;8.10;6.90;;;7.40;47.10;;;;;;4988019;28;20264;-80
2021/04/03 00:46:04;;;;;;;7.28;6.57;;;7.30;47.00;;;;;;4986899;28;20070;-81
2021/04/03 00:48:30;;;;;;;6.20;5.70;;;7.30;47.00;;;;;;4986454;28;20062;-77
2021/04/03 00:50:56;;;;;;;7.13;6.45;;;7.30;47.10;;;;;;4970748;28;20057;-81
2021/04/03 00:53:28;;;;;;;8.35;7.22;;;7.30;47.10;;;;;;5000207;28;20113;-81
2021/04/03 00:56:05;;;;;;;7.35;6.65;;;7.20;47.00;;;;;;4990958;28;20332;-79
2021/04/03 00:58:31;;;;;;;7.28;6.57;;;7.20;47.00;;;;;;4972474;28;20081;-80
2021/04/03 01:00:58;;;;;;;11.02;6.72;;;7.30;47.30;;;;;;4971367;28;20044;-78
2021/04/03 01:03:28;;;;;;;6.85;6.18;;;7.20;47.10;;;;;;4969929;28;20494;-79
2021/04/03 01:05:59;;;;;;;6.90;6.20;;;7.20;47.20;;;;;;4955191;28;20363;-79
2021/04/03 01:08:27;;;;;;;8.70;6.57;;;7.20;47.20;;;;;;4954964;28;20205;-80
2021/04/03 01:10:55;;;;;;;7.13;6.40;;;7.20;47.30;;;;;;4970565;28;20137;-80
2021/04/03 01:13:43;;;;;;;7.18;6.05;;;7.20;47.30;;;;;;4970177;28;20457;-80
2021/04/03 01:16:17;;;;;;;7.45;6.55;;;7.20;47.50;;;;;;4955307;28;20493;-79
2021/04/03 01:19:22;;;;;;;6.65;6.05;;;7.20;47.40;;;;;;4954457;28;20084;-78
2021/04/03 01:22:11;;;;;;;7.82;6.22;;;7.20;47.50;;;;;;4970617;28;20058;-79
2021/04/03 01:24:41;;;;;;;7.60;6.90;;;7.20;47.50;;;;;;4987778;28;20074;-79
2021/04/03 01:27:17;;;;;;;7.97;7.05;;;7.20;47.40;;;;;;4938563;28;20042;-79
2021/04/03 01:30:00;;;;;;;8.35;6.35;;;7.20;47.60;;;;;;4954034;28;20584;-79
2021/04/03 01:32:56;;;;;;;7.65;6.63;;;7.20;47.60;;;;;;4951852;28;20185;-78
2021/04/03 01:35:40;;;;;;;8.43;6.85;;;7.20;47.60;;;;;;4952268;28;20039;-79
2021/04/03 01:38:36;;;;;;;8.48;5.97;;;7.20;47.70;;;;;;4952032;28;20051;-80
2021/04/03 01:41:05;;;;;;;7.20;6.50;;;7.20;47.70;;;;;;4936188;28;20095;-79
2021/04/03 01:43:47;;;;;;;7.43;6.72;;;7.20;47.70;;;;;;4951950;28;20050;-79
2021/04/03 01:46:21;;;;;;;8.15;6.32;;;7.20;47.80;;;;;;4951717;28;20039;-79
2021/04/03 01:48:48;;;;;;;10.32;6.15;;;7.20;47.80;;;;;;4954775;28;20047;-80
2021/04/03 01:51:16;;;;;;;7.43;6.18;;;7.20;47.80;;;;;;4954552;28;20584;-79
2021/04/03 01:53:45;;;;;;;7.10;6.40;;;7.20;47.90;;;;;;4954555;28;20041;-80
2021/04/03 01:56:16;;;;;;;7.13;6.07;;;7.20;48.00;;;;;;4955278;28;20433;-80
2021/04/03 01:58:45;;;;;;;6.88;6.18;;;7.20;48.00;;;;;;4954664;28;20065;-80
2021/04/03 02:01:15;;;;;;;7.47;6.18;;;7.10;47.90;;;;;;4955262;28;20048;-80
2021/04/03 02:03:44;;;;;;;11.02;7.32;;;7.10;47.90;;;;;;4971871;28;20235;-80
2021/04/03 02:06:12;;;;;;;7.95;5.47;;;7.20;48.10;;;;;;4954862;28;20046;-80
2021/04/03 02:09:03;;;;;;;6.40;4.85;;;7.10;47.90;;;;;;4954821;28;20382;-80
2021/04/03 02:11:58;;;;;;;9.32;6.50;;;7.10;48.00;;;;;;4952754;28;20074;-80
2021/04/03 02:14:48;;;;;;;8.35;6.53;;;7.10;48.00;;;;;;4970187;28;20049;-79
2021/04/03 02:17:18;;;;;;;11.30;5.97;;;7.10;48.10;;;;;;4954638;28;20114;-79
2021/04/03 02:19:45;;;;;;;6.25;5.55;;;7.10;48.10;;;;;;4955101;28;20031;-80
2021/04/03 02:22:15;;;;;;;6.03;5.10;;;7.10;48.10;;;;;;4938923;28;20141;-80
2021/04/03 02:24:46;;;;;;;7.85;5.78;;;7.10;48.20;;;;;;4954393;28;20051;-78
2021/04/03 02:27:14;;;;;;;7.63;5.15;;;7.10;48.30;;;;;;4970454;28;20043;-79
2021/04/03 02:29:40;;;;;;;7.32;6.20;;;7.10;48.30;;;;;;4971888;28;20076;-80
2021/04/03 02:32:07;;;;;;;8.40;5.53;;;7.00;48.10;;;;;;4971723;28;20125;-79
2021/04/03 02:34:34;;;;;;;6.35;5.43;;;7.00;48.30;;;;;;4954338;28;20156;-79
2021/04/03 02:37:00;;;;;;;7.22;5.22;;;7.00;48.30;;;;;;4971268;28;20042;-80
2021/04/03 02:39:27;;;;;;;7.47;5.53;;;7.00;48.30;;;;;;4954288;28;20133;-79
2021/04/03 02:42:06;;;;;;;6.65;5.82;;;7.00;48.30;;;;;;4955432;28;20046;-80
2021/04/03 02:44:35;;;;;;;12.20;6.07;;;7.00;48.50;;;;;;4972246;28;20062;-80
2021/04/03 02:47:10;;;;;;;6.10;5.20;;;7.00;48.50;;;;;;4954421;28;20099;-79
2021/04/03 02:49:41;;;;;;;;;;;7.00;48.50;;;;;;4954868;28;20106;-79
2021/04/03 02:52:11;;;;;;;5.38;4.82;;;7.00;48.40;;;;;;4970546;28;19929;-79
2021/04/03 02:54:40;;;;;;;10.23;4.95;;;7.00;48.30;;;;;;4971223;28;20050;-80
2021/04/03 02:57:09;;;;;;;8.48;5.18;;;7.00;48.40;;;;;;4988939;28;20031;-80
2021/04/03 02:59:40;;;;;;;6.38;5.25;;;7.00;48.40;;;;;;4974008;28;20039;-79
2021/04/03 03:02:08;;;;;;;8.23;5.75;;;7.00;48.50;;;;;;4974048;28;20438;-78
2021/04/03 03:04:38;;;;;;;6.47;4.60;;;6.90;48.40;;;;;;4970050;28;20129;-78
2021/04/03 03:07:07;;;;;;;6.20;4.95;;;6.90;48.40;;;;;;4971466;28;20406;-78
2021/04/03 03:09:36;;;;;;;5.85;4.95;;;6.90;48.50;;;;;;4969908;28;20107;-80
2021/04/03 03:12:09;;;;;;;6.68;5.63;;;6.90;48.50;;;;;;4969912;28;20057;-79
2021/04/03 03:14:42;;;;;;;7.28;5.07;;;6.90;48.60;;;;;;4970008;28;20038;-79
2021/04/03 03:17:13;;;;;;;8.57;5.25;;;6.90;48.60;;;;;;4954013;28;20039;-79
2021/04/03 03:19:44;;;;;;;11.43;5.90;;;6.90;48.80;;;;;;4969320;28;20043;-80
2021/04/03 03:22:12;;;;;;;8.43;4.72;;;6.90;48.70;;;;;;4969990;28;20050;-79
2021/04/03 03:24:39;;;;;;;6.82;4.95;;;6.90;48.80;;;;;;4971228;28;20518;-81
2021/04/03 03:27:08;;;;;;;8.57;5.38;;;6.90;48.80;;;;;;4974061;28;20486;-79
2021/04/03 03:29:35;;;;;;;6.43;4.85;;;6.80;48.60;;;;;;4974905;28;20317;-80
2021/04/03 03:32:02;;;;;;;7.53;4.78;;;6.90;48.80;;;;;;4974591;28;20190;-80
2021/04/03 03:34:30;;;;;;;8.27;4.93;;;6.90;48.90;;;;;;4973409;28;20038;-79
2021/04/03 03:37:00;;;;;;;5.93;5.18;;;6.90;48.90;;;;;;4973240;28;20042;-80
2021/04/03 03:39:33;;;;;;;7.20;4.57;;;6.80;48.70;;;;;;4941797;28;20387;-80
2021/04/03 03:42:01;;;;;;;6.35;5.38;;;6.80;48.80;;;;;;4957033;28;20042;-81
2021/04/03 03:44:28;;;;;;;9.15;5.70;;;6.80;48.80;;;;;;4956987;28;20490;-81
2021/04/03 03:46:56;;;;;;;6.03;4.65;;;6.70;48.60;;;;;;4973119;28;20198;-80
2021/04/03 03:49:22;;;;;;;9.32;5.32;;;6.80;48.80;;;;;;4956640;28;20214;-80
2021/04/03 03:51:49;;;;;;;6.53;5.20;;;6.70;48.70;;;;;;4973106;28;20050;-81
2021/04/03 03:54:17;;;;;;;6.22;4.82;;;6.80;48.90;;;;;;4956590;28;20031;-80
2021/04/03 03:56:43;;;;;;;6.20;4.63;;;6.70;48.70;;;;;;4956655;28;20047;-80
2021/04/03 03:59:09;;;;;;;5.70;4.80;;;6.70;48.70;;;;;;4956953;28;20050;-80
2021/04/03 04:01:37;;;;;;;6.63;4.80;;;6.70;48.80;;;;;;4956896;28;20623;-81
2021/04/03 04:04:04;;;;;;;7.20;4.60;;;6.70;48.90;;;;;;4956304;28;20085;-81
2021/04/03 04:06:32;;;;;;;6.85;4.68;;;6.70;48.90;;;;;;4972961;28;20450;-80
2021/04/03 04:09:02;;;;;;;9.05;5.38;;;6.70;49.00;;;;;;4973832;28;20520;-81
2021/04/03 04:11:29;;;;;;;6.82;5.28;;;6.70;49.00;;;;;;4940781;28;20082;-81
2021/04/03 04:14:03;;;;;;;6.30;5.28;;;6.70;49.10;;;;;;4957513;28;20058;-81
2021/04/03 04:16:40;;;;;;;10.00;5.38;;;6.70;49.00;;;;;;4942047;28;20035;-81
2021/04/03 04:19:09;;;;;;;5.43;4.82;;;6.60;48.90;;;;;;4956498;28;20035;-80
2021/04/03 04:21:37;;;;;;;5.53;5.03;;;6.60;48.90;;;;;;4972258;28;20461;-80
2021/04/03 04:24:04;;;;;;;7.15;4.95;;;6.70;49.00;;;;;;4972218;28;20051;-81
2021/04/03 04:26:31;;;;;;;9.27;5.53;;;6.60;48.90;;;;;;4973865;28;20049;-80
2021/04/03 04:28:58;;;;;;;6.80;4.82;;;6.60;48.90;;;;;;4972206;28;20065;-80
2021/04/03 04:31:28;;;;;;;7.45;5.43;;;6.60;48.90;;;;;;4956411;28;20098;-81
2021/04/03 04:34:04;;;;;;;9.90;5.25;;;6.50;48.70;;;;;;4972159;28;20046;-81
2021/04/03 04:36:31;;;;;;;9.68;5.65;;;6.50;48.70;;;;;;4956254;28;20035;-80
2021/04/03 04:38:57;;;;;;;7.68;5.13;;;6.50;48.80;;;;;;4955523;28;20454;-80
2021/04/03 04:41:26;;;;;;;6.03;5.20;;;6.50;48.80;;;;;;4940765;28;20049;-81
2021/04/03 04:43:53;;;;;;;12.10;6.15;;;6.50;48.90;;;;;;4973119;28;20103;-81
2021/04/03 04:46:21;;;;;;;7.00;5.13;;;6.40;48.70;;;;;;4955676;28;20038;-80
2021/04/03 04:48:52;;;;;;;8.77;5.43;;;6.40;48.70;;;;;;4955868;28;20070;-81
2021/04/03 04:51:24;;;;;;;7.22;5.43;;;6.40;48.80;;;;;;4938409;28;20047;-80
2021/04/03 04:53:55;;;;;;;7.90;5.30;;;6.40;48.80;;;;;;4954503;28;20070;-79
2021/04/03 04:56:24;;;;;;;7.05;5.78;;;6.40;48.80;;;;;;4953797;28;20031;-80
2021/04/03 04:58:51;;;;;;;8.32;5.43;;;6.40;48.90;;;;;;4987751;28;20046;-79
2021/04/03 05:01:21;;;;;;;10.60;5.43;;;6.40;48.90;;;;;;4965918;28;20067;-79
2021/04/03 05:03:48;;;;;;;8.63;5.32;;;6.40;48.90;;;;;;4977907;28;20102;-79
2021/04/03 05:06:14;;;;;;;7.03;5.30;;;6.40;49.00;;;;;;4970346;28;20042;-80
2021/04/03 05:08:40;;;;;;;8.40;5.30;;;6.40;49.00;;;;;;4964402;28;20034;-80
2021/04/03 05:11:06;;;;;;;8.77;5.22;;;6.30;48.80;;;;;;4972701;28;20050;-79
2021/04/03 05:13:32;;;;;;;6.68;4.93;;;6.40;49.00;;;;;;4987703;28;20042;-78
2021/04/03 05:15:58;;;;;;;6.57;5.10;;;6.30;48.90;;;;;;4988020;28;20413;-79
2021/04/03 05:18:24;;;;;;;6.63;5.18;;;6.30;48.90;;;;;;4987124;28;20565;-79
2021/04/03 05:20:50;;;;;;;6.72;4.93;;;6.30;48.90;;;;;;4987129;28;20130;-78
2021/04/03 05:23:18;;;;;;;7.65;4.22;;;6.30;48.90;;;;;;4969191;28;20046;-80
2021/04/03 05:25:45;;;;;;;6.05;5.18;;;6.20;48.80;;;;;;4987990;28;20066;-79
2021/04/03 05:28:13;;;;;;;8.82;5.05;;;6.20;48.80;;;;;;4987918;28;20043;-79
2021/04/03 05:30:43;;;;;;;9.07;5.13;;;6.20;48.80;;;;;;4985893;28;20046;-80
2021/04/03 05:33:10;;;;;;;10.98;5.85;;;6.20;48.90;;;;;;4969780;28;20509;-79
2021/04/03 05:35:36;;;;;;;9.63;4.90;;;6.20;48.90;;;;;;4970280;28;20035;-80
2021/04/03 05:38:03;;;;;;;7.45;4.97;;;6.20;49.00;;;;;;4980412;28;20135;-81
2021/04/03 05:40:29;;;;;;;8.45;5.28;;;6.10;48.80;;;;;;4950091;28;20038;-81
2021/04/03 05:42:57;;;;;;;7.60;4.95;;;6.10;48.80;;;;;;4950665;28;20050;-80
2021/04/03 05:45:26;;;;;;;7.93;5.32;;;6.10;48.90;;;;;;4951835;28;20066;-79
2021/04/03 05:47:53;;;;;;;8.85;5.15;;;6.20;49.10;;;;;;4939703;28;20038;-79
2021/04/03 05:50:19;;;;;;;5.88;4.72;;;6.10;48.90;;;;;;4970441;28;20050;-80
2021/04/03 05:52:47;;;;;;;5.90;4.78;;;6.20;49.10;;;;;;4981165;28;20146;-81
2021/04/03 05:55:13;;;;;;;7.75;5.35;;;6.10;48.90;;;;;;4967126;28;20038;-79
2021/04/03 05:57:39;;;;;;;9.68;5.63;;;6.10;49.00;;;;;;4950478;28;20043;-79
2021/04/03 06:00:07;;;;;;;11.75;5.47;;;6.10;49.00;;;;;;4950153;28;20514;-79
2021/04/03 06:02:39;;;;;;;12.02;6.05;;;6.20;49.30;;;;;;4956365;28;20153;-80
2021/04/03 06:05:06;;;;;;;10.90;5.80;;;6.20;49.40;;;;;;4970285;28;20042;-81
2021/04/03 06:07:34;;;;;;;19.35;7.70;;;6.20;49.40;;;;;;4968736;28;20077;-81
2021/04/03 06:10:02;;;;;;;11.73;6.53;;;6.20;49.40;;;;;;4949218;28;20455;-80
2021/04/03 06:12:39;;;;;;;15.90;6.88;;;6.20;49.50;;;;;;4953400;28;20093;-79
2021/04/03 06:15:06;;;;;;;17.48;6.78;;;6.30;49.80;;;;;;4954038;28;20038;-81
2021/04/03 06:17:33;;;;;;;21.27;7.75;;;6.30;49.80;;;;;;4968259;28;20038;-80
2021/04/03 06:19:59;;;;;;;11.63;6.60;;;6.30;49.80;;;;;;4950013;28;20039;-80
2021/04/03 06:22:39;;;;;;;12.02;7.20;;;6.30;49.80;;;;;;4949816;28;20038;-82
2021/04/03 06:25:05;;;;;;;19.15;7.95;;;6.30;49.90;;;;;;4949877;28;20066;-82
2021/04/03 06:27:31;;;;;;;15.00;7.82;;;6.30;49.90;;;;;;4968497;28;20127;-84
2021/04/03 06:30:35;;;;;;;18.20;7.40;;;6.40;50.10;;;;;;4969072;28;20084;-81
2021/04/03 06:33:20;;;;;;;23.63;8.30;;;6.40;50.10;;;;;;4961780;28;20082;-82
2021/04/03 06:36:08;;;;;;;14.50;7.28;;;6.40;50.10;;;;;;4967311;28;20045;-80
2021/04/03 06:38:35;;;;;;;16.73;6.82;;;6.40;50.10;;;;;;4967254;28;20517;-81
2021/04/03 06:41:24;;;;;;;17.38;8.00;;;6.50;50.20;;;;;;4934086;28;20039;-80
2021/04/03 06:44:10;;;;;;;12.98;7.45;;;6.50;50.30;;;;;;4950487;28;20087;-80
2021/04/03 06:46:41;;;;;;;13.98;6.95;;;6.60;50.50;;;;;;4950038;28;20098;-78
2021/04/03 06:49:08;;;;;;;16.02;7.63;;;6.60;50.30;;;;;;4967479;28;20054;-81
2021/04/03 06:51:34;;;;;;;14.68;7.78;;;6.60;50.30;;;;;;4934012;28;20536;-82
2021/04/03 06:54:02;;;;;;;14.57;7.18;;;6.60;50.30;;;;;;4970983;28;20059;-79
2021/04/03 06:56:34;;;;;;;17.20;6.85;;;6.70;50.40;;;;;;4991136;28;20047;-79
2021/04/03 06:59:02;;;;;;;13.90;6.68;;;6.70;50.40;;;;;;4985227;28;20123;-80
2021/04/03 07:01:49;;;;;;;17.48;7.57;;;6.80;50.50;;;;;;4953780;28;20046;-81
2021/04/03 07:04:43;;;;;;;18.45;8.80;;;6.90;50.70;;;;;;4950681;28;20039;-81
2021/04/03 07:07:10;;;;;;;17.13;7.45;;;6.90;50.60;;;;;;4933331;28;20161;-80
2021/04/03 07:09:39;;;;;;;11.35;6.65;;;7.00;50.60;;;;;;4959111;28;20425;-83
2021/04/03 07:12:06;;;;;;;14.00;7.45;;;7.00;50.60;;;;;;4953702;28;20157;-82
2021/04/03 07:14:35;;;;;;;12.60;7.93;;;7.10;50.70;;;;;;4953896;28;20109;-84
2021/04/03 07:17:02;;;;;;;11.35;6.00;;;7.20;50.80;;;;;;4953884;28;20466;-83
2021/04/03 07:19:30;;;;;;;11.50;6.00;;;7.20;51.00;;;;;;4970501;28;20061;-82
2021/04/03 07:21:56;;;;;;;12.93;6.57;;;7.30;51.70;;;;;;4972759;28;20039;-81
2021/04/03 07:24:24;;;;;;;16.38;6.85;;;7.40;52.10;;;;;;4953381;28;20051;-81
2021/04/03 07:26:52;;;;;;;20.70;7.13;;;7.50;52.40;;;;;;4953001;28;20046;-81
2021/04/03 07:29:40;;;;;;;17.67;6.72;;;7.50;52.50;;;;;;4964155;28;20418;-80
2021/04/03 07:32:07;;;;;;;9.73;5.88;;;7.70;53.00;;;;;;4970412;28;20039;-80
2021/04/03 07:34:42;;;;;;;11.45;6.18;;;7.80;52.90;;;;;;4953119;28;20354;-82
2021/04/03 07:37:11;;;;;;;17.83;5.95;;;7.80;52.90;;;;;;4952810;28;20128;-81
2021/04/03 07:39:39;;;;;;;16.40;6.78;;;7.90;53.00;;;;;;4956053;28;20035;-81
2021/04/03 07:42:32;;;;;;;14.48;5.93;;;8.00;53.00;;;;;;4972431;28;20133;-80
2021/04/03 07:44:59;;;;;;;13.10;5.55;;;8.10;53.20;;;;;;4953591;28;20046;-83
2021/04/03 07:47:25;;;;;;;12.55;5.78;;;8.20;53.10;;;;;;4937061;28;20050;-83
2021/04/03 07:49:53;;;;;;;11.35;6.20;;;8.20;53.00;;;;;;4953060;28;20452;-82
2021/04/03 07:52:52;;;;;;;13.60;6.60;;;8.30;53.20;;;;;;4954706;28;20081;-81
2021/04/03 07:55:43;;;;;;;9.45;5.25;;;8.30;53.20;;;;;;4990252;28;20386;-82
2021/04/03 07:58:33;;;;;;;10.30;5.65;;;8.40;53.20;;;;;;4952674;28;20055;-81
2021/04/03 08:01:02;;;;;;;13.23;6.15;;;8.50;53.20;;;;;;4943262;28;20379;-80
2021/04/03 08:03:30;;;;;;;13.90;5.82;;;8.50;53.00;;;;;;4970451;28;20133;-82
2021/04/03 08:06:06;;;;;;;8.93;6.05;;;8.60;53.20;;;;;;4953270;28;20157;-81
2021/04/03 08:08:33;;;;;;;16.90;6.35;;;8.60;53.10;;;;;;4942335;28;20439;-81
2021/04/03 08:11:06;;;;;;;15.13;6.35;;;8.70;53.20;;;;;;4969216;28;20058;-82
2021/04/03 08:13:35;;;;;;;9.45;6.22;;;8.80;53.20;;;;;;4963554;28;20472;-82
2021/04/03 08:16:04;;;;;;;10.52;6.28;;;8.90;53.40;;;;;;4971921;28;20046;-82
2021/04/03 08:18:31;;;;;;;15.80;7.38;;;8.90;53.30;;;;;;4972132;28;20053;-82
2021/04/03 08:20:57;;;;;;;14.18;6.80;;;9.00;53.40;;;;;;4988336;28;20057;-81
2021/04/03 08:23:33;;;;;;;11.75;5.72;;;9.00;53.30;;;;;;4989666;28;20042;-82
2021/04/03 08:26:00;;;;;;;16.58;6.28;;;9.10;53.40;;;;;;4971762;28;20462;-80
2021/04/03 08:28:26;;;;;;;11.27;5.90;;;9.10;53.30;;;;;;4966462;28;20050;-81
2021/04/03 08:30:55;;;;;;;17.33;6.75;;;9.20;53.40;;;;;;4971476;28;20046;-83
2021/04/03 08:33:21;;;;;;;16.05;5.80;;;9.30;53.50;;;;;;4980035;28;20078;-82
2021/04/03 08:35:50;;;;;;;10.80;5.93;;;9.40;53.50;;;;;;4952498;28;20047;-81
2021/04/03 08:38:22;;;;;;;9.65;5.90;;;9.50;53.50;;;;;;4952217;28;20134;-81
2021/04/03 08:40:50;;;;;;;15.85;6.28;;;9.60;53.50;;;;;;4969896;28;20514;-82
2021/04/03 08:43:18;;;;;;;11.65;6.20;;;9.70;53.60;;;;;;4977675;28;20049;-83
2021/04/03 08:45:44;;;;;;;11.80;5.80;;;9.80;53.60;;;;;;4972363;28;20035;-81
2021/04/03 08:48:11;;;;;;;13.63;6.10;;;9.90;53.60;;;;;;4989075;28;20065;-78
2021/04/03 08:50:45;;;;;;;8.88;5.38;;;10.00;53.60;;;;;;4971624;28;20054;-78
2021/04/03 08:53:12;;;;;;;9.30;5.53;;;10.10;53.60;;;;;;4988808;28;20200;-78
2021/04/03 08:55:38;;;;;;;14.45;5.75;;;10.20;53.60;;;;;;4988879;28;20042;-79
2021/04/03 08:58:05;;;;;;;11.52;5.45;;;10.30;53.70;;;;;;4984127;28;20155;-82
2021/04/03 09:00:32;;;;;;;11.40;5.88;;;10.40;53.70;;;;;;4936592;28;20442;-84
2021/04/03 09:02:58;;;;;;;14.88;5.25;;;10.50;53.70;;;;;;4976570;28;20498;-83
2021/04/03 09:05:25;;;;;;;13.63;5.47;;;10.60;53.80;;;;;;4993274;28;20030;-80
2021/04/03 09:07:52;;;;;;;14.05;6.00;;;10.70;53.80;;;;;;4993245;28;20115;-83
2021/04/03 09:10:23;;;;;;;11.90;5.63;;;10.80;53.80;;;;;;4974788;28;20035;-82
2021/04/03 09:12:50;;;;;;;13.63;5.88;;;10.90;53.80;;;;;;4970314;28;20050;-79
2021/04/03 09:15:28;;;;;;;11.15;6.07;;;11.00;53.80;;;;;;4971166;28;20201;-82
2021/04/03 09:17:57;;;;;;;12.40;5.65;;;11.20;54.00;;;;;;4971535;28;20097;-81
2021/04/03 09:20:26;;;;;;;15.00;6.00;;;11.30;54.00;;;;;;4972491;28;20188;-83
2021/04/03 09:23:07;;;;;;;9.13;5.38;;;11.40;53.90;;;;;;4989564;28;20054;-79
2021/04/03 09:25:33;;;;;;;9.30;5.70;;;11.50;53.90;;;;;;4987671;28;20043;-81
2021/04/03 09:28:04;;;;;;;12.32;5.97;;;11.60;53.90;;;;;;4989240;28;20039;-81
2021/04/03 09:30:36;;;;;;;11.77;5.53;;;11.70;53.90;;;;;;4971393;28;20057;-82
2021/04/03 09:33:14;;;;;;;10.52;5.53;;;11.80;53.90;;;;;;4980447;28;20066;-79
2021/04/03 09:35:40;;;;;;;11.02;5.30;;;11.90;53.90;;;;;;4951169;28;20043;-81
2021/04/03 09:38:06;;;;;;;11.02;4.93;;;12.00;53.90;;;;;;4967405;28;20152;-82
2021/04/03 09:40:45;;;;;;;11.60;5.15;;;12.10;53.90;;;;;;4969343;28;20157;-86
2021/04/03 09:43:13;;;;;;;9.27;4.80;;;12.10;53.70;;;;;;4960208;28;20121;-83
2021/04/03 09:45:40;;;;;;;13.80;5.90;;;12.20;53.70;;;;;;4989642;28;20137;-80
2021/04/03 09:48:08;;;;;;;13.25;5.38;;;12.30;53.70;;;;;;4970532;28;20203;-80
2021/04/03 09:50:34;;;;;;;7.78;4.75;;;12.40;53.70;;;;;;4988320;28;20053;-81
2021/04/03 09:53:11;;;;;;;15.55;5.13;;;12.50;53.80;;;;;;4981195;28;20058;-85
2021/04/03 09:55:38;;;;;;;13.25;5.03;;;12.50;53.60;;;;;;4936272;28;20098;-83
2021/04/03 09:58:04;;;;;;;5.20;4.10;;;12.70;53.80;;;;;;4969279;28;20050;-81
2021/04/03 10:00:31;;;;;;;9.82;4.50;;;12.80;53.80;;;;;;4969032;28;20367;-81
2021/04/03 10:02:58;;;;;;;12.65;5.82;;;12.90;53.80;;;;;;4951268;28;20085;-81
2021/04/03 10:05:24;;;;;;;11.02;4.90;;;13.00;53.80;;;;;;4953271;28;20068;-87
2021/04/03 10:07:50;;;;;;;21.38;5.40;;;13.10;53.70;;;;;;4953442;28;20038;-82
2021/04/03 10:10:17;;;;;;;24.80;5.75;;;13.20;53.30;;;;;;4951541;28;20049;-83
2021/04/03 10:12:43;;;;;;;16.27;5.10;;;13.20;52.80;;;;;;4951992;28;20039;-83
2021/04/03 10:15:09;;;;;;;16.95;5.68;;;13.30;52.80;;;;;;4951468;28;20582;-85
2021/04/03 10:17:36;;;;;;;14.45;5.70;;;13.40;52.80;;;;;;4968075;28;20136;-84
2021/04/03 10:20:04;;;;;;;16.38;6.57;;;13.50;52.60;;;;;;4955233;28;20401;-85
2021/04/03 10:22:30;;;;;;;15.45;6.75;;;13.70;52.60;;;;;;4967762;28;20042;-85
2021/04/03 10:24:56;;;;;;;21.05;7.82;;;13.80;52.40;;;;;;4966559;28;20100;-82
2021/04/03 10:27:22;;;;;;;12.35;7.15;;;13.90;52.40;;;;;;4950055;28;20055;-77
2021/04/03 10:29:48;;;;;;;16.92;6.82;;;14.00;52.50;;;;;;4950307;28;20035;-79
2021/04/03 10:32:14;;;;;;;16.45;6.78;;;14.20;52.70;;;;;;4949902;28;20568;-81
2021/04/03 10:34:40;;;;;;;11.95;6.30;;;14.30;52.80;;;;;;4950139;28;20473;-81
2021/04/03 10:37:06;;;;;;;13.43;6.95;;;14.50;52.90;;;;;;4949661;28;20035;-80
2021/04/03 10:39:32;;;;;;;18.85;6.65;;;14.70;53.00;;;;;;4950365;28;20058;-81
2021/04/03 10:42:02;;;;;;;10.38;5.88;;;14.80;53.00;;;;;;4967716;28;20042;-83
2021/04/03 10:44:28;;;;;;;17.50;6.53;;;14.90;52.90;;;;;;4949886;28;20046;-81
2021/04/03 10:46:54;;;;;;;16.80;5.78;;;15.00;52.90;;;;;;4950101;28;20051;-82
2021/04/03 10:49:21;;;;;;;12.52;5.53;;;15.20;53.10;;;;;;4981715;28;20038;-81
2021/04/03 10:51:47;;;;;;;14.18;5.65;;;15.30;53.00;;;;;;4986784;28;20095;-81
2021/04/03 10:54:15;;;;;;;13.05;5.70;;;15.40;53.00;;;;;;4969006;28;20035;-81
2021/04/03 10:56:41;;;;;;;13.98;6.15;;;15.50;53.10;;;;;;4953680;28;20512;-84
2021/04/03 10:59:07;;;;;;;11.80;5.63;;;15.70;53.20;;;;;;4985602;28;20034;-80
2021/04/03 11:01:33;;;;;;;8.90;4.85;;;15.70;53.00;;;;;;4987273;28;20051;-79
2021/04/03 11:03:59;;;;;;;14.02;5.53;;;15.80;52.90;;;;;;4969772;28;20038;-79
2021/04/03 11:06:25;;;;;;;14.68;5.20;;;15.90;53.00;;;;;;4968694;28;20096;-80
2021/04/03 11:08:50;;;;;;;8.43;5.15;;;15.80;52.60;;;;;;4986304;28;20054;-80
2021/04/03 11:11:17;;;;;;;10.45;5.82;;;15.90;52.70;;;;;;4969293;28;20046;-81
2021/04/03 11:13:43;;;;;;;9.52;4.82;;;15.90;52.60;;;;;;4985252;28;20061;-80
2021/04/03 11:16:09;;;;;;;7.05;4.38;;;16.00;52.70;;;;;;4984809;28;20085;-81
2021/04/03 11:18:35;;;;;;;13.15;4.72;;;16.00;52.60;;;;;;4978584;28;20039;-80
2021/04/03 11:21:01;;;;;;;9.75;5.00;;;16.10;52.60;;;;;;4966985;28;20038;-80
2021/04/03 11:23:27;;;;;;;9.25;4.50;;;16.20;52.60;;;;;;4949978;28;20046;-81
2021/04/03 11:25:52;;;;;;;15.50;5.32;;;16.20;52.50;;;;;;4950033;28;20035;-78
2021/04/03 11:28:18;;;;;;;10.70;4.35;;;16.30;52.50;;;;;;4966988;28;20208;-81
2021/04/03 11:30:44;;;;;;;11.32;4.80;;;16.40;52.50;;;;;;4967063;28;20485;-80
2021/04/03 11:33:11;;;;;;;7.60;5.05;;;16.50;52.50;;;;;;4957040;28;20100;-80
2021/04/03 11:35:37;;;;;;;9.95;4.53;;;16.50;52.30;;;;;;4968991;28;20405;-81
2021/04/03 11:38:04;;;;;;;12.02;4.80;;;16.60;52.30;;;;;;4953345;28;20101;-81
2021/04/03 11:40:30;;;;;;;16.05;5.22;;;16.50;52.00;;;;;;4969120;28;20042;-80
2021/04/03 11:42:56;;;;;;;9.75;4.88;;;16.50;52.00;;;;;;4962801;28;20054;-82
2021/04/03 11:45:24;;;;;;;13.05;4.32;;;16.50;51.90;;;;;;4949852;28;20038;-80
2021/04/03 11:47:52;;;;;;;10.95;4.50;;;16.40;51.70;;;;;;4971074;28;20156;-81
2021/04/03 11:50:18;;;;;;;8.73;4.40;;;16.40;51.70;;;;;;4977526;28;20200;-80
2021/04/03 11:52:45;;;;;;;11.60;3.88;;;16.40;51.60;;;;;;4975599;28;20027;-80
2021/04/03 11:55:14;;;;;;;11.73;4.40;;;16.30;51.40;;;;;;4974767;28;20027;-81
2021/04/03 11:57:40;;;;;;;10.90;4.60;;;16.30;51.50;;;;;;4972637;28;20038;-83
2021/04/03 12:00:07;;;;;;;9.95;4.45;;;16.20;51.40;;;;;;4953056;28;20501;-80
2021/04/03 12:02:36;;;;;;;10.95;4.47;;;16.20;51.30;;;;;;4955895;28;20054;-83
2021/04/03 12:05:03;;;;;;;9.65;4.18;;;16.20;51.30;;;;;;4957030;28;20110;-82
2021/04/03 12:07:33;;;;;;;8.18;4.38;;;16.10;51.00;;;;;;4972489;28;20078;-83
2021/04/03 12:09:59;;;;;;;10.18;4.00;;;16.10;51.00;;;;;;4956389;28;20054;-80
2021/04/03 12:12:26;;;;;;;10.32;4.70;;;16.00;50.80;;;;;;4988253;28;20140;-81
2021/04/03 12:14:52;;;;;;;7.72;4.40;;;16.00;50.80;;;;;;4971951;28;20049;-81
2021/04/03 12:17:18;;;;;;;9.30;4.50;;;15.90;50.70;;;;;;4987405;28;20409;-81
2021/04/03 12:19:44;;;;;;;14.52;4.28;;;15.90;50.70;;;;;;4955480;28;20130;-83
2021/04/03 12:22:10;;;;;;;13.43;4.35;;;15.90;50.70;;;;;;4953215;28;20104;-81
2021/04/03 12:24:35;;;;;;;11.05;5.13;;;15.90;50.70;;;;;;4953086;28;20069;-82
2021/04/03 12:27:02;;;;;;;21.63;6.13;;;15.90;50.50;;;;;;4953469;28;20034;-83
2021/04/03 12:29:28;;;;;;;11.95;5.82;;;15.90;50.40;;;;;;4970404;28;20066;-82
2021/04/03 12:31:53;;;;;;;17.27;6.38;;;16.00;50.40;;;;;;4937572;28;20518;-82
2021/04/03 12:34:19;;;;;;;11.63;5.32;;;16.00;50.20;;;;;;4970478;28;20035;-83
2021/04/03 12:36:45;;;;;;;10.63;5.40;;;16.00;50.00;;;;;;4953310;28;20042;-83
2021/04/03 12:39:11;;;;;;;13.15;5.30;;;16.00;49.90;;;;;;4952254;28;20065;-84
2021/04/03 12:41:37;;;;;;;16.50;5.28;;;16.00;49.70;;;;;;4937739;28;20150;-84
2021/04/03 12:44:03;;;;;;;11.02;4.53;;;16.00;49.60;;;;;;4970499;28;20050;-88
2021/04/03 12:46:29;;;;;;;26.67;7.15;;;16.00;49.50;;;;;;4952359;28;20445;-85
2021/04/03 12:48:56;;;;;;;17.00;6.57;;;15.90;49.10;;;;;;4952625;28;20273;-88
2021/04/03 12:51:22;;;;;;;23.70;7.38;;;15.90;48.60;;;;;;4952692;28;20082;-81
2021/04/03 12:53:48;;;;;;;17.63;6.25;;;15.80;48.00;;;;;;4961849;28;20046;-78
2021/04/03 12:56:14;;;;;;;21.80;7.60;;;15.70;47.70;;;;;;4952228;28;20517;-81
2021/04/03 12:58:40;;;;;;;21.27;6.57;;;15.60;47.50;;;;;;4951903;28;20030;-79
2021/04/03 13:01:06;;;;;;;12.05;6.25;;;15.70;47.80;;;;;;4968306;28;20058;-80